Time;durP1;ratioP1;P1;durP2;ratioP2;P2;SDS_P1;SDS_P2;PMS_P1;PMS_P2;Temp;Humidity;BMP_temperature;BMP_pressure;BME280_temperature;BME280_humidity;BME280_pressure;Samples;Min_cycle;Max_cycle;Signal;HPM_P1;HPM_P2
2022/09/05 00:01:34;;;;;;;;;;;;;;;19.42;92.91;95721.72;5092889;28;1036;-50
2022/09/05 00:04:06;;;;;;;;;;;;;;;19.44;93.92;95722.38;5093587;28;971;-50
2022/09/05 00:06:36;;;;;;;;;;;;;;;19.54;91.91;95720.13;5096036;28;1989;-50
2022/09/05 00:09:05;;;;;;;;;;;;;;;19.50;94.05;95718.84;5097732;28;906;-50
2022/09/05 00:11:31;;;;;;;;;;;;;;;19.38;94.38;95715.88;5097087;28;1131;-50
2022/09/05 00:13:57;;;;;;;;;;;;;;;19.37;94.07;95710.66;5097360;28;969;-50
2022/09/05 00:16:30;;;;;;;;;;;;;;;19.36;93.95;95720.66;5097133;28;1877;-50
2022/09/05 00:18:56;;;;;;;;;;;;;;;19.39;93.37;95719.41;5097534;28;962;-50
2022/09/05 00:21:38;;;;;;;;;;;;;;;19.40;94.16;95712.97;5096907;28;1030;-50
2022/09/05 00:24:04;;;;;;;;;;;;;;;19.37;93.33;95716.06;5097185;28;1081;-50
2022/09/05 00:26:43;;;;;;;;;;;;;;;19.36;93.54;95720.66;5096885;28;1902;-50
2022/09/05 00:29:15;;;;;;;;;;;;;;;19.39;93.64;95722.13;5097265;28;966;-50
2022/09/05 00:31:53;;;;;;;;;;;;;;;19.45;93.26;95721.34;5096808;28;1087;-50
2022/09/05 00:34:19;;;;;;;;;;;;;;;19.45;94.41;95732.19;5097107;28;1058;-50
2022/09/05 00:36:45;;;;;;;;;;;;;;;19.37;93.67;95726.91;5096650;28;1265;-50
2022/09/05 00:39:16;;;;;;;;;;;;;;;19.43;93.13;95723.41;5096857;28;1032;-50
2022/09/05 00:41:43;;;;;;;;;;;;;;;19.39;94.30;95722.13;5096722;28;1000;-50
2022/09/05 00:44:11;;;;;;;;;;;;;;;19.34;94.17;95721.91;5096872;28;1210;-50
2022/09/05 00:46:39;;;;;;;;;;;;;;;19.34;93.63;95727.34;5096793;28;1909;-50
2022/09/05 00:49:16;;;;;;;;;;;;;;;19.43;93.18;95732.38;5096667;28;1110;-50
2022/09/05 00:51:45;;;;;;;;;;;;;;;19.44;92.45;95728.63;5096144;28;1108;-50
2022/09/05 00:54:18;;;;;;;;;;;;;;;19.36;94.09;95727.97;5096835;28;1020;-50
2022/09/05 00:57:03;;;;;;;;;;;;;;;19.36;94.22;95723.38;5096568;28;984;-50
2022/09/05 00:59:42;;;;;;;;;;;;;;;19.34;94.28;95721.91;5096665;28;1004;-50
2022/09/05 01:02:08;;;;;;;;;;;;;;;19.29;94.30;95727.94;5095900;28;1124;-50
2022/09/05 01:04:41;;;;;;;;;;;;;;;19.29;94.25;95726.06;5096451;28;1095;-50
2022/09/05 01:07:19;;;;;;;;;;;;;;;19.32;93.30;95727.53;5096358;28;1910;-50
2022/09/05 01:09:55;;;;;;;;;;;;;;;19.18;96.05;95737.50;5095694;28;1096;-50
2022/09/05 01:12:31;;;;;;;;;;;;;;;19.25;93.98;95727.50;5096102;28;966;-50
2022/09/05 01:14:59;;;;;;;;;;;;;;;19.36;92.43;95736.09;5096804;28;977;-50
2022/09/05 01:17:34;;;;;;;;;;;;;;;19.41;91.96;95728.22;5095739;28;1330;-50
2022/09/05 01:20:00;;;;;;;;;;;;;;;19.41;92.12;95736.34;5097156;28;996;-50
2022/09/05 01:22:55;;;;;;;;;;;;;;;19.49;91.70;95731.56;5116430;28;1036;-50
2022/09/05 01:25:32;;;;;;;;;;;;;;;19.39;92.23;95738.41;5043780;28;1298;-51
2022/09/05 01:28:21;;;;;;;;;;;;;;;19.46;91.30;95741.97;5116544;28;1016;-50
2022/09/05 01:31:06;;;;;;;;;;;;;;;19.44;91.29;95738.63;5116227;28;1085;-50
2022/09/05 01:33:38;;;;;;;;;;;;;;;19.34;92.15;95740.91;5116105;28;1044;-50
2022/09/05 01:36:25;;;;;;;;;;;;;;;19.19;93.13;95743.75;5116116;28;1336;-50
2022/09/05 01:39:09;;;;;;;;;;;;;;;19.16;94.27;95739.56;5115061;28;1910;-50
2022/09/05 01:41:38;;;;;;;;;;;;;;;19.29;92.08;95744.19;5115631;28;1872;-50
2022/09/05 01:44:04;;;;;;;;;;;;;;;19.29;93.90;95742.34;5112700;28;1162;-50
2022/09/05 01:46:42;;;;;;;;;;;;;;;19.26;93.05;95744.63;5096028;28;1991;-50
2022/09/05 01:49:11;;;;;;;;;;;;;;;19.19;94.19;95741.84;5095392;28;934;-50
2022/09/05 01:51:40;;;;;;;;;;;;;;;19.12;94.38;95746.41;5095426;28;1053;-50
2022/09/05 01:54:06;;;;;;;;;;;;;;;19.24;92.67;95741.28;5095344;28;1020;-50
2022/09/05 01:56:34;;;;;;;;;;;;;;;19.35;91.41;95738.00;5095464;28;1044;-50
2022/09/05 01:59:19;;;;;;;;;;;;;;;19.36;91.28;95736.94;5095527;28;1044;-50
2022/09/05 02:01:45;;;;;;;;;;;;;;;19.39;90.44;95732.97;5095260;28;1037;-50
2022/09/05 02:04:21;;;;;;;;;;;;;;;19.34;90.71;95736.31;5095102;28;1009;-50
2022/09/05 02:07:06;;;;;;;;;;;;;;;19.34;91.24;95724.63;5095204;28;1987;-50
2022/09/05 02:09:39;;;;;;;;;;;;;;;19.29;91.03;95730.63;5095285;28;1032;-50
2022/09/05 02:12:13;;;;;;;;;;;;;;;19.35;90.15;95727.16;5094923;28;1021;-50
2022/09/05 02:14:42;;;;;;;;;;;;;;;19.35;89.89;95739.84;5076981;28;1065;-50
2022/09/05 02:17:14;;;;;;;;;;;;;;;19.38;89.54;95740.28;5095033;28;996;-50
2022/09/05 02:19:46;;;;;;;;;;;;;;;19.27;90.43;95741.72;5095125;28;1004;-50
2022/09/05 02:22:20;;;;;;;;;;;;;;;19.23;90.94;95742.28;5094629;28;1149;-50
2022/09/05 02:24:50;;;;;;;;;;;;;;;19.24;90.98;95747.53;5094928;28;977;-50
2022/09/05 02:27:16;;;;;;;;;;;;;;;19.17;91.52;95745.81;5095296;28;1905;-50
2022/09/05 02:29:49;;;;;;;;;;;;;;;19.19;92.43;95741.84;5094135;28;1032;-49
2022/09/05 02:32:38;;;;;;;;;;;;;;;19.16;90.88;95745.00;5114056;28;1059;-50
2022/09/05 02:35:21;;;;;;;;;;;;;;;19.22;90.62;95744.19;5114946;28;1227;-51
2022/09/05 02:38:16;;;;;;;;;;;;;;;19.25;90.29;95742.94;5114993;28;1088;-50
2022/09/05 02:40:47;;;;;;;;;;;;;;;19.31;89.33;95742.97;5036168;28;1187;-51
2022/09/05 02:43:31;;;;;;;;;;;;;;;19.31;89.37;95745.69;5094591;28;1003;-50
2022/09/05 02:46:06;;;;;;;;;;;;;;;19.24;90.49;95749.41;5113495;28;1917;-50
2022/09/05 02:49:05;;;;;;;;;;;;;;;19.17;91.03;95757.50;5096534;28;1040;-51
2022/09/05 02:51:43;;;;;;;;;;;;;;;19.02;92.33;95764.91;5057299;28;1161;-51
2022/09/05 02:54:35;;;;;;;;;;;;;;;19.01;92.16;95769.50;5093882;28;1035;-50
2022/09/05 02:57:20;;;;;;;;;;;;;;;19.20;90.76;95767.06;5090577;28;1570;-50
2022/09/05 03:00:02;;;;;;;;;;;;;;;19.10;92.26;95762.88;5094161;28;964;-50
2022/09/05 03:02:46;;;;;;;;;;;;;;;19.15;91.50;95764.16;5093946;28;1835;-50
2022/09/05 03:05:16;;;;;;;;;;;;;;;19.13;92.43;95771.66;5094470;28;1021;-50
2022/09/05 03:08:02;;;;;;;;;;;;;;;19.11;91.63;95772.66;5094029;28;1989;-51
2022/09/05 03:10:46;;;;;;;;;;;;;;;19.09;92.52;95763.91;5093676;28;994;-50
2022/09/05 03:13:45;;;;;;;;;;;;;;;19.02;92.44;95773.84;5093908;28;1115;-49
2022/09/05 03:16:29;;;;;;;;;;;;;;;18.96;92.51;95774.66;5049367;28;1312;-49
2022/09/05 03:19:10;;;;;;;;;;;;;;;18.92;93.16;95771.50;5093739;28;1048;-50
2022/09/05 03:21:55;;;;;;;;;;;;;;;18.88;93.55;95772.94;5093514;28;1093;-50
2022/09/05 03:24:24;;;;;;;;;;;;;;;18.98;91.53;95767.16;5094030;28;978;-50
2022/09/05 03:26:49;;;;;;;;;;;;;;;18.95;91.94;95769.44;5094001;28;1969;-50
2022/09/05 03:29:34;;;;;;;;;;;;;;;18.85;93.17;95764.38;5093937;28;996;-50
2022/09/05 03:32:19;;;;;;;;;;;;;;;18.70;93.74;95772.56;5093442;28;1007;-50
2022/09/05 03:34:57;;;;;;;;;;;;;;;18.80;92.26;95778.53;5093306;28;1668;-50
2022/09/05 03:37:47;;;;;;;;;;;;;;;18.94;91.36;95773.19;5093790;28;1038;-50
2022/09/05 03:40:19;;;;;;;;;;;;;;;18.97;90.18;95773.66;5081943;28;2130;-50
2022/09/05 03:43:03;;;;;;;;;;;;;;;18.97;90.19;95772.78;5093633;28;1029;-50
2022/09/05 03:45:29;;;;;;;;;;;;;;;18.85;91.57;95780.63;5093559;28;1154;-50
2022/09/05 03:48:15;;;;;;;;;;;;;;;18.75;92.79;95789.06;5093966;28;1198;-48
2022/09/05 03:50:54;;;;;;;;;;;;;;;18.50;94.30;95794.09;5093227;28;1219;-50
2022/09/05 03:53:41;;;;;;;;;;;;;;;18.39;94.81;95800.03;5093364;28;980;-49
2022/09/05 03:56:16;;;;;;;;;;;;;;;18.51;94.37;95799.28;5093381;28;1048;-50
2022/09/05 03:58:54;;;;;;;;;;;;;;;18.64;92.96;95800.44;5093573;28;1030;-49
2022/09/05 04:01:24;;;;;;;;;;;;;;;18.76;91.86;95803.44;5092815;28;1115;-50
2022/09/05 04:03:54;;;;;;;;;;;;;;;18.79;91.42;95809.31;5093339;28;1098;-50
2022/09/05 04:06:26;;;;;;;;;;;;;;;18.81;90.73;95814.56;5093257;28;1910;-49
2022/09/05 04:08:58;;;;;;;;;;;;;;;18.88;89.94;95810.88;5093566;28;1045;-50
2022/09/05 04:11:39;;;;;;;;;;;;;;;18.92;89.29;95809.44;5092712;28;1074;-51
2022/09/05 04:14:12;;;;;;;;;;;;;;;19.06;88.09;95806.81;5093263;28;1028;-51
2022/09/05 04:16:41;;;;;;;;;;;;;;;19.14;87.14;95805.84;5093084;28;973;-51
2022/09/05 04:19:10;;;;;;;;;;;;;;;19.13;86.45;95805.00;5093322;28;1070;-51
2022/09/05 04:21:48;;;;;;;;;;;;;;;19.05;87.32;95805.16;5092898;28;1087;-50
2022/09/05 04:24:33;;;;;;;;;;;;;;;19.08;86.36;95812.88;5093182;28;958;-51
2022/09/05 04:27:19;;;;;;;;;;;;;;;19.06;86.27;95815.78;5092859;28;1997;-50
2022/09/05 04:29:57;;;;;;;;;;;;;;;18.97;87.70;95817.00;5093210;28;1057;-49
2022/09/05 04:32:26;;;;;;;;;;;;;;;18.90;88.87;95816.09;5074943;28;1091;-50
2022/09/05 04:35:11;;;;;;;;;;;;;;;18.91;88.39;95820.47;5092900;28;1322;-50
2022/09/05 04:37:37;;;;;;;;;;;;;;;18.77;89.99;95822.22;5093204;28;1080;-50
2022/09/05 04:40:21;;;;;;;;;;;;;;;18.79;90.04;95822.84;5093003;28;946;-50
2022/09/05 04:42:48;;;;;;;;;;;;;;;18.87;87.88;95836.28;5092862;28;1028;-50
2022/09/05 04:45:16;;;;;;;;;;;;;;;18.97;87.18;95844.09;5092710;28;1201;-51
2022/09/05 04:47:45;;;;;;;;;;;;;;;19.10;85.50;95841.50;5092842;28;1989;-51
2022/09/05 04:50:14;;;;;;;;;;;;;;;19.14;86.13;95844.59;5092672;28;1033;-50
2022/09/05 04:52:48;;;;;;;;;;;;;;;18.95;89.39;95851.56;5094616;28;1032;-50
2022/09/05 04:55:17;;;;;;;;;;;;;;;18.97;87.78;95854.06;5096540;28;1035;-49
2022/09/05 04:57:49;;;;;;;;;;;;;;;19.02;87.29;95863.28;5096682;28;1076;-49
2022/09/05 05:00:24;;;;;;;;;;;;;;;18.90;90.28;95860.28;5096420;28;1022;-49
2022/09/05 05:02:54;;;;;;;;;;;;;;;18.89;89.01;95868.59;5096297;28;1041;-53
2022/09/05 05:05:21;;;;;;;;;;;;;;;18.90;89.41;95865.69;5096540;28;992;-50
2022/09/05 05:08:11;;;;;;;;;;;;;;;18.88;90.43;95875.91;5096276;28;1983;-50
2022/09/05 05:10:46;;;;;;;;;;;;;;;19.07;87.22;95873.56;5096288;28;922;-50
2022/09/05 05:13:15;;;;;;;;;;;;;;;19.06;89.55;95882.72;5096213;28;1270;-50
2022/09/05 05:15:48;;;;;;;;;;;;;;;19.03;88.29;95883.94;5096340;28;1037;-50
2022/09/05 05:18:19;;;;;;;;;;;;;;;18.99;89.19;95882.69;5096205;28;1071;-50
2022/09/05 05:20:52;;;;;;;;;;;;;;;19.18;84.56;95883.88;5096186;28;1048;-50
2022/09/05 05:23:27;;;;;;;;;;;;;;;19.27;84.84;95888.09;5095745;28;1080;-50
2022/09/05 05:25:55;;;;;;;;;;;;;;;19.42;84.09;95887.16;5096114;28;2293;-49
2022/09/05 05:28:41;;;;;;;;;;;;;;;19.44;82.47;95887.78;5096027;28;1072;-50
2022/09/05 05:31:10;;;;;;;;;;;;;;;19.46;82.92;95891.13;5095850;28;1052;-50
2022/09/05 05:33:37;;;;;;;;;;;;;;;19.58;82.18;95894.97;5095702;28;1040;-50
2022/09/05 05:36:06;;;;;;;;;;;;;;;19.60;81.61;95898.31;5095417;28;1097;-50
2022/09/05 05:38:44;;;;;;;;;;;;;;;19.68;82.30;95900.88;5096084;28;975;-50
2022/09/05 05:41:19;;;;;;;;;;;;;;;19.68;81.06;95905.47;5095791;28;1091;-50
2022/09/05 05:43:46;;;;;;;;;;;;;;;19.65;81.98;95908.56;5095270;28;1080;-50
2022/09/05 05:46:24;;;;;;;;;;;;;;;19.68;81.17;95909.00;5095321;28;1928;-51
2022/09/05 05:48:53;;;;;;;;;;;;;;;19.56;83.58;95904.34;5095773;28;960;-50
2022/09/05 05:51:22;;;;;;;;;;;;;;;19.44;84.04;95904.88;5095585;28;1004;-50
2022/09/05 05:53:49;;;;;;;;;;;;;;;19.56;81.33;95907.91;5095449;28;1223;-50
2022/09/05 05:56:29;;;;;;;;;;;;;;;19.56;82.39;95907.91;5095516;28;1080;-51
2022/09/05 05:59:02;;;;;;;;;;;;;;;19.58;82.90;95911.25;5095479;28;1013;-50
2022/09/05 06:01:46;;;;;;;;;;;;;;;19.63;82.35;95906.06;5095459;28;1008;-50
2022/09/05 06:04:22;;;;;;;;;;;;;;;19.75;81.50;95916.38;5094221;28;1028;-50
2022/09/05 06:06:48;;;;;;;;;;;;;;;19.76;81.91;95915.34;5095093;28;1906;-50
2022/09/05 06:09:33;;;;;;;;;;;;;;;19.76;82.11;95916.19;5094863;28;1109;-50
2022/09/05 06:12:18;;;;;;;;;;;;;;;19.81;82.26;95921.03;5094884;28;1036;-50
2022/09/05 06:14:47;;;;;;;;;;;;;;;19.92;81.57;95922.31;5095155;28;1112;-50
2022/09/05 06:17:13;;;;;;;;;;;;;;;20.05;80.91;95923.25;5094778;28;1055;-50
2022/09/05 06:19:40;;;;;;;;;;;;;;;20.17;80.26;95923.50;5095080;28;977;-50
2022/09/05 06:22:05;;;;;;;;;;;;;;;20.21;79.39;95921.22;5094686;28;1060;-50
2022/09/05 06:24:31;;;;;;;;;;;;;;;20.43;78.51;95922.78;5095099;28;1096;-50
2022/09/05 06:27:04;;;;;;;;;;;;;;;20.73;77.98;95932.47;5094893;28;1991;-50
2022/09/05 06:29:54;;;;;;;;;;;;;;;21.20;74.33;95926.06;5094925;28;1095;-50
2022/09/05 06:32:47;;;;;;;;;;;;;;;21.90;71.59;95922.03;5094293;28;1097;-50
2022/09/05 06:35:31;;;;;;;;;;;;;;;22.63;69.55;95931.84;5094570;28;1230;-50
2022/09/05 06:38:03;;;;;;;;;;;;;;;23.63;66.63;95931.97;5094537;28;1091;-50
2022/09/05 06:40:35;;;;;;;;;;;;;;;25.55;58.78;95927.03;5094751;28;1019;-51
2022/09/05 06:43:07;;;;;;;;;;;;;;;28.05;52.16;95929.50;5094204;28;1144;-51
2022/09/05 06:45:33;;;;;;;;;;;;;;;30.12;46.27;95942.47;5094551;28;1158;-51
2022/09/05 06:48:22;;;;;;;;;;;;;;;31.64;43.09;95943.34;5094284;28;1969;-52
2022/09/05 06:50:57;;;;;;;;;;;;;;;31.81;40.49;95945.00;5094554;28;1000;-52
2022/09/05 06:53:34;;;;;;;;;;;;;;;33.03;38.29;95948.59;5093842;28;1025;-52
2022/09/05 06:56:09;;;;;;;;;;;;;;;34.13;35.58;95954.81;5094601;28;1038;-51
2022/09/05 06:59:01;;;;;;;;;;;;;;;34.95;34.30;95956.72;5094343;28;1022;-51
2022/09/05 07:01:30;;;;;;;;;;;;;;;35.51;32.85;95960.66;5094332;28;974;-52
2022/09/05 07:04:18;;;;;;;;;;;;;;;35.95;32.66;95970.59;5094085;28;1227;-52
2022/09/05 07:07:03;;;;;;;;;;;;;;;36.21;32.38;95963.78;5093920;28;2139;-52
2022/09/05 07:09:34;;;;;;;;;;;;;;;36.78;30.83;95967.19;5094101;28;1033;-52
2022/09/05 07:12:18;;;;;;;;;;;;;;;36.30;31.26;95973.09;5094091;28;1951;-51
2022/09/05 07:14:55;;;;;;;;;;;;;;;36.25;31.84;95970.41;5093896;28;1028;-52
2022/09/05 07:17:29;;;;;;;;;;;;;;;35.81;31.85;95964.16;5094087;28;1029;-51
2022/09/05 07:19:58;;;;;;;;;;;;;;;36.32;32.02;95960.50;5093951;28;1028;-51
2022/09/05 07:22:25;;;;;;;;;;;;;;;32.22;37.56;95937.53;5093559;28;1210;-51
2022/09/05 07:24:52;;;;;;;;;;;;;;;30.67;40.37;95945.84;5094285;28;992;-51
2022/09/05 07:27:32;;;;;;;;;;;;;;;30.36;41.27;95948.44;5093924;28;1910;-51
2022/09/05 07:29:58;;;;;;;;;;;;;;;32.31;37.33;95959.94;5093749;28;1040;-50
2022/09/05 07:32:26;;;;;;;;;;;;;;;31.99;39.46;95957.47;5093664;28;1029;-50
2022/09/05 07:34:52;;;;;;;;;;;;;;;30.00;44.10;95948.19;5113953;28;1245;-51
2022/09/05 07:37:23;;;;;;;;;;;;;;;29.02;44.74;95949.19;5113941;28;1035;-50
2022/09/05 07:39:54;;;;;;;;;;;;;;;28.48;45.76;95949.91;5114076;28;1057;-50
2022/09/05 07:42:28;;;;;;;;;;;;;;;28.04;46.89;95953.44;5113872;28;1139;-50
2022/09/05 07:44:57;;;;;;;;;;;;;;;26.86;51.41;95947.75;5103926;28;1343;-50
2022/09/05 07:47:29;;;;;;;;;;;;;;;26.38;53.58;95947.03;5093444;28;2000;-50
2022/09/05 07:49:58;;;;;;;;;;;;;;;25.34;56.55;95950.34;5093492;28;956;-50
2022/09/05 07:52:26;;;;;;;;;;;;;;;24.22;56.75;95954.31;5093594;28;1844;-49
2022/09/05 07:54:53;;;;;;;;;;;;;;;23.90;60.87;95949.00;5093350;28;1092;-50
2022/09/05 07:57:20;;;;;;;;;;;;;;;24.78;55.89;95948.84;5092881;28;1212;-50
2022/09/05 07:59:49;;;;;;;;;;;;;;;25.67;54.86;95949.81;5093159;28;1129;-48
2022/09/05 08:02:15;;;;;;;;;;;;;;;26.04;51.07;95941.38;5093247;28;1134;-50
2022/09/05 08:04:41;;;;;;;;;;;;;;;25.54;52.72;95943.72;5093492;28;1072;-50
2022/09/05 08:07:11;;;;;;;;;;;;;;;24.36;58.87;95950.38;5093188;28;1913;-50
2022/09/05 08:09:40;;;;;;;;;;;;;;;23.80;56.76;95935.00;5092619;28;997;-51
2022/09/05 08:12:11;;;;;;;;;;;;;;;23.26;61.07;95937.34;5093301;28;1033;-49
2022/09/05 08:14:42;;;;;;;;;;;;;;;23.32;60.04;95927.44;5093295;28;1045;-49
2022/09/05 08:17:15;;;;;;;;;;;;;;;23.26;60.42;95933.75;5093464;28;1027;-50
2022/09/05 08:19:54;;;;;;;;;;;;;;;23.68;59.84;95928.59;5092980;28;1030;-50
2022/09/05 08:22:22;;;;;;;;;;;;;;;24.42;56.42;95925.94;5093242;28;1079;-50
2022/09/05 08:24:56;;;;;;;;;;;;;;;24.98;54.81;95930.22;5093085;28;1549;-51
2022/09/05 08:27:28;;;;;;;;;;;;;;;25.14;55.32;95937.78;5095400;28;1906;-50
2022/09/05 08:29:58;;;;;;;;;;;;;;;25.11;56.29;95934.66;5097151;28;1292;-50
2022/09/05 08:32:46;;;;;;;;;;;;;;;24.92;59.45;95929.25;5097018;28;1056;-50
2022/09/05 08:35:15;;;;;;;;;;;;;;;25.05;56.39;95933.69;5095758;28;1112;-49
2022/09/05 08:37:43;;;;;;;;;;;;;;;24.70;57.13;95934.41;5095892;28;1176;-49
2022/09/05 08:40:16;;;;;;;;;;;;;;;24.50;57.69;95934.63;5096938;28;1047;-49
2022/09/05 08:42:54;;;;;;;;;;;;;;;24.51;57.27;95932.72;5097246;28;1001;-49
2022/09/05 08:45:34;;;;;;;;;;;;;;;24.73;54.55;95928.47;5096763;28;1157;-49
2022/09/05 08:48:10;;;;;;;;;;;;;;;24.84;54.06;95936.97;5096941;28;1906;-49
2022/09/05 08:50:56;;;;;;;;;;;;;;;24.85;53.86;95942.22;5097182;28;965;-51
2022/09/05 08:53:25;;;;;;;;;;;;;;;24.86;55.70;95941.13;5086268;28;1656;-50
2022/09/05 08:55:57;;;;;;;;;;;;;;;24.78;56.38;95943.38;5096672;28;1105;-52
2022/09/05 08:58:42;;;;;;;;;;;;;;;24.86;54.64;95943.88;5097126;28;961;-51
2022/09/05 09:01:27;;;;;;;;;;;;;;;24.92;56.10;95944.84;5096313;28;1091;-51
2022/09/05 09:03:56;;;;;;;;;;;;;;;24.82;54.68;95939.09;5096601;28;984;-52
2022/09/05 09:06:34;;;;;;;;;;;;;;;24.89;53.08;95946.16;5096338;28;1910;-50
2022/09/05 09:09:09;;;;;;;;;;;;;;;25.01;53.71;95934.41;5096246;28;1084;-50
2022/09/05 09:11:57;;;;;;;;;;;;;;;25.03;54.13;95938.56;5096634;28;961;-49
2022/09/05 09:14:42;;;;;;;;;;;;;;;24.39;55.91;95932.66;5096156;28;1036;-50
2022/09/05 09:17:25;;;;;;;;;;;;;;;24.39;54.69;95927.19;5096256;28;1050;-49
2022/09/05 09:20:08;;;;;;;;;;;;;;;24.78;56.67;95933.25;5095931;28;1869;-51
2022/09/05 09:22:43;;;;;;;;;;;;;;;25.01;57.34;95935.25;5096199;28;1017;-49
2022/09/05 09:25:12;;;;;;;;;;;;;;;25.10;55.90;95933.84;5095917;28;1056;-50
2022/09/05 09:27:44;;;;;;;;;;;;;;;24.52;52.95;95931.69;5095939;28;1992;-49
2022/09/05 09:30:12;;;;;;;;;;;;;;;23.99;54.87;95926.84;5095688;28;1053;-50
2022/09/05 09:33:04;;;;;;;;;;;;;;;24.45;54.67;95930.91;5096156;28;957;-49
2022/09/05 09:35:36;;;;;;;;;;;;;;;24.68;53.38;95935.69;5099600;28;1247;-50
2022/09/05 09:38:12;;;;;;;;;;;;;;;24.66;54.10;95938.69;5114816;28;992;-49
2022/09/05 09:40:44;;;;;;;;;;;;;;;24.81;54.38;95940.97;5116003;28;1068;-50
2022/09/05 09:43:27;;;;;;;;;;;;;;;25.04;51.90;95934.78;5116018;28;1075;-49
2022/09/05 09:46:13;;;;;;;;;;;;;;;25.19;51.60;95937.06;5134220;27;1993;-49
2022/09/05 09:48:39;;;;;;;;;;;;;;;25.23;50.50;95930.09;5136656;27;953;-50
2022/09/05 09:51:13;;;;;;;;;;;;;;;25.31;50.39;95928.94;5136185;27;1052;-50
2022/09/05 09:54:02;;;;;;;;;;;;;;;25.34;53.76;95928.44;5136499;27;1201;-49
2022/09/05 09:56:47;;;;;;;;;;;;;;;25.29;52.38;95925.59;5088728;27;1150;-50
2022/09/05 09:59:32;;;;;;;;;;;;;;;25.44;51.32;95925.13;5136181;27;1044;-50
2022/09/05 10:02:06;;;;;;;;;;;;;;;25.50;52.54;95919.53;5135303;27;1047;-50
2022/09/05 10:04:44;;;;;;;;;;;;;;;25.41;52.58;95911.91;5136650;27;956;-50
2022/09/05 10:07:14;;;;;;;;;;;;;;;25.44;49.68;95905.97;5136284;27;1990;-49
2022/09/05 10:09:46;;;;;;;;;;;;;;;25.46;50.18;95899.19;5136100;27;1919;-50
2022/09/05 10:12:31;;;;;;;;;;;;;;;25.56;52.28;95895.88;5136334;27;983;-50
2022/09/05 10:15:09;;;;;;;;;;;;;;;25.67;49.91;95895.03;5136250;27;961;-50
2022/09/05 10:17:54;;;;;;;;;;;;;;;25.73;48.83;95882.28;5136180;27;984;-49
2022/09/05 10:20:23;;;;;;;;;;;;;;;25.74;49.41;95885.84;5135733;27;1023;-50
2022/09/05 10:23:04;;;;;;;;;;;;;;;25.79;50.88;95880.50;5136277;27;1857;-50
2022/09/05 10:25:33;;;;;;;;;;;;;;;25.71;52.40;95881.69;5135847;27;1016;-50
2022/09/05 10:28:12;;;;;;;;;;;;;;;25.77;48.85;95874.44;5135975;27;1910;-50
2022/09/05 10:30:44;;;;;;;;;;;;;;;25.87;49.26;95874.66;5135689;27;1017;-50
2022/09/05 10:33:13;;;;;;;;;;;;;;;25.95;51.10;95877.03;5135736;27;1060;-50
2022/09/05 10:35:46;;;;;;;;;;;;;;;25.83;50.65;95871.56;5127475;27;1225;-50
2022/09/05 10:38:19;;;;;;;;;;;;;;;25.88;49.59;95870.84;5115128;28;1083;-51
2022/09/05 10:40:49;;;;;;;;;;;;;;;25.52;52.83;95875.50;5115040;28;1054;-50
2022/09/05 10:43:21;;;;;;;;;;;;;;;25.32;52.97;95873.94;5114951;28;1035;-50
2022/09/05 10:45:56;;;;;;;;;;;;;;;25.08;50.26;95870.31;5097373;28;1998;-52
2022/09/05 10:48:22;;;;;;;;;;;;;;;25.12;54.17;95873.41;5094477;28;1123;-51
2022/09/05 10:50:54;;;;;;;;;;;;;;;25.10;51.46;95873.66;5093929;28;1315;-51
2022/09/05 10:53:35;;;;;;;;;;;;;;;24.92;51.04;95865.50;5094490;28;968;-51
2022/09/05 10:56:06;;;;;;;;;;;;;;;25.10;49.97;95868.19;5094246;28;1080;-51
2022/09/05 10:58:51;;;;;;;;;;;;;;;25.33;51.62;95861.09;5094658;28;1012;-50
2022/09/05 11:01:24;;;;;;;;;;;;;;;25.25;54.06;95866.91;5094182;28;1040;-51
2022/09/05 11:03:53;;;;;;;;;;;;;;;25.24;50.09;95859.78;5094238;28;1040;-51
2022/09/05 11:06:48;;;;;;;;;;;;;;;25.09;50.35;95863.75;5093924;28;1909;-51
2022/09/05 11:09:20;;;;;;;;;;;;;;;25.05;50.11;95853.53;5094264;28;948;-50
2022/09/05 11:11:59;;;;;;;;;;;;;;;24.94;53.58;95852.44;5094114;28;1028;-50
2022/09/05 11:14:34;;;;;;;;;;;;;;;24.82;49.90;95848.84;5094082;28;1012;-51
2022/09/05 11:17:10;;;;;;;;;;;;;;;24.84;52.06;95844.81;5093912;28;1073;-52
2022/09/05 11:19:41;;;;;;;;;;;;;;;25.06;51.49;95844.25;5094231;28;962;-51
2022/09/05 11:22:08;;;;;;;;;;;;;;;25.25;53.20;95840.41;5093857;28;1055;-51
2022/09/05 11:24:51;;;;;;;;;;;;;;;25.35;49.85;95841.72;5094037;28;988;-53
2022/09/05 11:27:25;;;;;;;;;;;;;;;24.98;51.29;95848.16;5093470;28;1905;-51
2022/09/05 11:30:03;;;;;;;;;;;;;;;25.10;51.44;95843.56;5093868;28;1255;-50
2022/09/05 11:32:48;;;;;;;;;;;;;;;25.18;52.10;95836.91;5093590;28;1271;-50
2022/09/05 11:38:55;;;;;;;;;;;;;;;25.18;51.09;95842.38;3616933;28;2240;-50
2022/09/05 11:41:40;;;;;;;;;;;;;;;25.41;50.95;95827.06;5093321;28;1028;-50
2022/09/05 11:44:25;;;;;;;;;;;;;;;25.53;49.78;95833.34;5096686;28;1150;-50
2022/09/05 11:46:51;;;;;;;;;;;;;;;25.46;49.93;95828.03;5113729;28;1982;-51
2022/09/05 11:49:35;;;;;;;;;;;;;;;25.56;49.54;95824.69;5113753;28;1091;-51
2022/09/05 11:52:01;;;;;;;;;;;;;;;25.66;47.81;95810.38;5113589;28;1001;-50
2022/09/05 11:54:43;;;;;;;;;;;;;;;25.72;48.12;95803.94;5113715;28;989;-53
2022/09/05 11:57:22;;;;;;;;;;;;;;;25.60;51.28;95812.16;5113697;28;1033;-50
2022/09/05 11:59:54;;;;;;;;;;;;;;;25.50;50.54;95815.50;5113887;28;1064;-51
2022/09/05 12:02:31;;;;;;;;;;;;;;;25.07;49.86;95822.13;5112721;28;1060;-52
2022/09/05 12:05:06;;;;;;;;;;;;;;;24.83;50.19;95806.75;5113725;28;1302;-51
2022/09/05 12:07:32;;;;;;;;;;;;;;;24.79;50.31;95802.81;5113607;28;1922;-50
2022/09/05 12:10:13;;;;;;;;;;;;;;;24.92;50.55;95805.34;5113591;28;1072;-48
2022/09/05 12:12:57;;;;;;;;;;;;;;;25.12;50.05;95796.81;5113454;28;1032;-48
2022/09/05 12:15:26;;;;;;;;;;;;;;;25.33;49.23;95785.28;5113506;28;1064;-50
2022/09/05 12:18:04;;;;;;;;;;;;;;;25.43;50.66;95798.38;5113336;28;1017;-49
2022/09/05 12:20:53;;;;;;;;;;;;;;;25.49;50.17;95791.94;5113677;28;970;-49
2022/09/05 12:23:28;;;;;;;;;;;;;;;25.48;52.05;95786.72;5113248;28;1016;-50
2022/09/05 12:25:59;;;;;;;;;;;;;;;25.36;49.96;95781.22;5113352;28;1971;-49
2022/09/05 12:28:56;;;;;;;;;;;;;;;25.16;49.83;95789.78;5113432;28;1036;-50
2022/09/05 12:31:28;;;;;;;;;;;;;;;24.95;49.97;95788.47;5093639;28;1216;-49
2022/09/05 12:33:55;;;;;;;;;;;;;;;24.74;50.62;95789.88;5112953;28;1097;-50
2022/09/05 12:36:46;;;;;;;;;;;;;;;24.66;49.83;95781.97;5113228;28;1680;-49
2022/09/05 12:39:27;;;;;;;;;;;;;;;24.88;49.47;95788.56;5113193;28;1099;-50
2022/09/05 12:42:06;;;;;;;;;;;;;;;24.93;49.32;95779.66;5113612;28;1088;-49
2022/09/05 12:44:41;;;;;;;;;;;;;;;25.05;51.10;95788.69;5106360;28;1217;-49
2022/09/05 12:47:09;;;;;;;;;;;;;;;25.23;49.98;95782.34;5093181;28;1987;-50
2022/09/05 12:49:55;;;;;;;;;;;;;;;25.43;49.00;95772.91;5092908;28;1865;-50
2022/09/05 12:52:32;;;;;;;;;;;;;;;25.48;48.75;95779.34;5092568;28;1073;-50
2022/09/05 12:55:12;;;;;;;;;;;;;;;25.59;46.76;95776.81;5092858;28;1037;-49
2022/09/05 12:57:40;;;;;;;;;;;;;;;25.52;47.94;95768.75;5092775;28;1158;-50
2022/09/05 13:00:11;;;;;;;;;;;;;;;25.58;46.46;95770.50;5092940;28;953;-50
2022/09/05 13:02:38;;;;;;;;;;;;;;;25.55;46.85;95770.97;5092593;28;1227;-50
2022/09/05 13:05:18;;;;;;;;;;;;;;;25.58;46.41;95775.97;5092795;28;1026;-50
2022/09/05 13:07:47;;;;;;;;;;;;;;;25.60;50.76;95767.53;5092343;28;1993;-49
2022/09/05 13:10:15;;;;;;;;;;;;;;;25.60;48.42;95759.31;5092866;28;1057;-51
2022/09/05 13:12:46;;;;;;;;;;;;;;;25.51;50.58;95762.41;5093598;28;1048;-48
2022/09/05 13:15:26;;;;;;;;;;;;;;;25.23;53.84;95765.06;5096444;28;1056;-49
2022/09/05 13:17:58;;;;;;;;;;;;;;;25.04;48.32;95765.16;5096100;28;1037;-49
2022/09/05 13:20:31;;;;;;;;;;;;;;;25.00;49.37;95763.94;5096449;28;973;-49
2022/09/05 13:22:59;;;;;;;;;;;;;;;24.82;48.13;95761.34;5096025;28;1078;-49
2022/09/05 13:25:26;;;;;;;;;;;;;;;24.89;50.89;95762.91;5096280;28;1101;-49
2022/09/05 13:28:00;;;;;;;;;;;;;;;25.01;49.18;95754.69;5096032;28;1905;-49
2022/09/05 13:30:26;;;;;;;;;;;;;;;25.16;48.57;95761.59;5095994;28;1940;-49
2022/09/05 13:32:59;;;;;;;;;;;;;;;25.23;48.88;95752.22;5095656;28;1862;-49
2022/09/05 13:35:27;;;;;;;;;;;;;;;25.14;48.72;95751.72;5096077;28;1027;-49
2022/09/05 13:38:03;;;;;;;;;;;;;;;24.93;48.22;95764.09;5095801;28;1096;-50
2022/09/05 13:40:32;;;;;;;;;;;;;;;24.79;48.39;95754.44;5095916;28;1029;-49
2022/09/05 13:43:05;;;;;;;;;;;;;;;24.67;48.27;95759.88;5095394;28;1032;-49